Time;durP1;ratioP1;P1;durP2;ratioP2;P2;SDS_P1;SDS_P2;PMS_P1;PMS_P2;Temp;Humidity;BMP_temperature;BMP_pressure;BME280_temperature;BME280_humidity;BME280_pressure;Samples;Min_cycle;Max_cycle;Signal;HPM_P1;HPM_P2
2023/11/12 00:01:53;;;;;;;1.77;1.45;;;;;;;8.18;52.48;93269.41;4963686;28;20402;-75
2023/11/12 00:04:19;;;;;;;2.28;1.60;;;;;;;8.08;52.88;93257.25;4967847;28;20062;-75
2023/11/12 00:06:44;;;;;;;1.40;1.30;;;;;;;8.08;52.54;93254.63;4967729;28;20122;-76
2023/11/12 00:09:10;;;;;;;2.50;1.65;;;;;;;8.04;52.58;93256.31;4971936;28;20038;-76
2023/11/12 00:11:37;;;;;;;4.22;1.50;;;;;;;7.90;53.40;93282.16;4968973;28;20125;-76
2023/11/12 00:14:03;;;;;;;4.40;2.90;;;;;;;7.84;53.04;93275.44;4985665;28;20511;-75
2023/11/12 00:16:29;;;;;;;15.27;7.05;;;;;;;7.98;53.09;93282.16;4967917;28;20413;-75
2023/11/12 00:18:55;;;;;;;3.63;2.33;;;;;;;7.89;52.89;93262.06;4971023;28;20061;-76
2023/11/12 00:21:20;;;;;;;2.88;1.40;;;;;;;8.06;52.28;93284.06;4967762;28;20485;-75
2023/11/12 00:23:46;;;;;;;1.77;1.35;;;;;;;8.06;52.38;93288.59;4983410;28;20046;-75
2023/11/12 00:26:13;;;;;;;3.83;1.20;;;;;;;7.81;52.96;93260.97;4966837;28;20766;-77
2023/11/12 00:28:40;;;;;;;1.77;1.30;;;;;;;7.73;53.34;93275.72;4969521;28;20034;-75
2023/11/12 00:31:06;;;;;;;1.90;1.23;;;;;;;7.65;53.21;93263.22;4969289;28;20037;-75
2023/11/12 00:33:31;;;;;;;1.20;1.02;;;;;;;7.55;52.84;93252.94;4967934;28;20042;-76
2023/11/12 00:35:57;;;;;;;1.80;1.20;;;;;;;7.68;53.02;93262.59;4970525;28;20085;-76
2023/11/12 00:38:22;;;;;;;2.60;1.60;;;;;;;7.71;52.53;93258.59;4968439;28;20667;-76
2023/11/12 00:40:48;;;;;;;2.20;1.40;;;;;;;7.56;53.38;93272.22;4969351;28;20035;-75
2023/11/12 00:43:13;;;;;;;2.60;1.20;;;;;;;7.45;53.16;93253.22;4967256;28;20973;-76
2023/11/12 00:45:39;;;;;;;2.00;1.40;;;;;;;7.49;53.06;93270.03;4970114;28;20069;-76
2023/11/12 00:48:05;;;;;;;2.75;1.45;;;;;;;7.44;53.45;93278.09;4969201;28;20035;-76
2023/11/12 00:50:31;;;;;;;1.38;1.25;;;;;;;7.40;53.16;93271.88;4968630;28;20522;-75
2023/11/12 00:52:57;;;;;;;4.25;1.85;;;;;;;7.35;53.34;93250.84;4967273;28;20062;-75
2023/11/12 00:55:22;;;;;;;5.88;2.35;;;;;;;7.34;53.40;93257.19;4971634;28;20331;-75
2023/11/12 00:57:48;;;;;;;12.57;2.85;;;;;;;7.39;53.01;93254.41;4974832;28;20544;-75
2023/11/12 01:00:14;;;;;;;4.53;2.15;;;;;;;7.45;52.75;93269.09;4969032;28;20038;-75
2023/11/12 01:02:39;;;;;;;5.68;3.17;;;;;;;7.22;53.50;93244.56;4968798;28;20038;-75
2023/11/12 01:05:05;;;;;;;6.40;2.55;;;;;;;7.29;53.48;93244.13;4970249;28;20038;-75
2023/11/12 01:07:31;;;;;;;7.75;2.78;;;;;;;7.28;53.07;93245.22;4972708;28;20046;-76
2023/11/12 01:09:56;;;;;;;2.60;2.10;;;;;;;7.31;53.26;93244.59;4967189;28;20030;-76
2023/11/12 01:12:23;;;;;;;5.40;2.28;;;;;;;7.21;53.46;93261.53;4969104;28;20046;-75
2023/11/12 01:14:49;;;;;;;4.75;2.30;;;;;;;7.12;53.34;93244.06;4965163;28;20030;-76
2023/11/12 01:17:15;;;;;;;8.13;2.30;;;;;;;6.78;53.96;93232.22;4969472;28;20042;-75
2023/11/12 01:19:41;;;;;;;4.10;2.20;;;;;;;6.83;53.75;93241.91;4967623;28;20484;-76
2023/11/12 01:22:07;;;;;;;3.78;1.80;;;;;;;6.98;53.58;93257.38;4966500;28;20057;-76
2023/11/12 01:24:32;;;;;;;2.70;1.92;;;;;;;6.59;53.96;93231.66;4969121;28;20839;-76
2023/11/12 01:26:58;;;;;;;4.43;2.03;;;;;;;6.71;54.28;93262.81;4970678;28;20039;-75
2023/11/12 01:29:24;;;;;;;4.00;2.25;;;;;;;6.71;54.41;93271.50;4968674;28;20050;-77
2023/11/12 01:31:50;;;;;;;1.85;1.35;;;;;;;6.77;54.47;93265.03;4968128;28;20386;-76
2023/11/12 01:34:16;;;;;;;3.63;1.65;;;;;;;6.61;54.51;93250.63;4970863;28;20038;-75
2023/11/12 01:36:41;;;;;;;1.50;1.40;;;;;;;6.64;54.17;93255.31;4967036;28;20018;-77
2023/11/12 01:39:08;;;;;;;2.75;1.60;;;;;;;6.75;54.41;93267.19;4968674;28;20048;-75
2023/11/12 01:41:36;;;;;;;4.20;2.08;;;;;;;6.78;54.42;93258.66;4968626;28;20858;-75
2023/11/12 01:44:02;;;;;;;7.28;2.75;;;;;;;6.73;54.28;93252.72;4967249;28;20509;-76
2023/11/12 01:46:29;;;;;;;8.98;3.50;;;;;;;6.70;54.16;93243.53;4975069;28;20134;-76
2023/11/12 01:48:55;;;;;;;7.25;1.95;;;;;;;6.86;54.11;93257.94;4969183;28;20077;-75
2023/11/12 01:51:21;;;;;;;6.40;2.50;;;;;;;6.65;54.58;93230.44;4966910;28;20034;-76
2023/11/12 01:53:48;;;;;;;8.07;2.10;;;;;;;6.78;54.43;93249.94;4969963;28;20035;-76
2023/11/12 01:56:15;;;;;;;4.10;2.17;;;;;;;6.77;54.14;93254.47;4967501;28;20038;-75
2023/11/12 01:58:43;;;;;;;2.70;2.08;;;;;;;6.61;54.25;93249.84;4965782;28;20045;-74
2023/11/12 02:01:09;;;;;;;3.83;2.13;;;;;;;6.76;54.10;93257.41;4967223;28;20034;-75
2023/11/12 02:03:36;;;;;;;2.53;1.95;;;;;;;6.81;54.15;93265.97;4968221;28;20029;-75
2023/11/12 02:06:03;;;;;;;2.35;2.05;;;;;;;6.82;54.25;93264.91;4967113;28;20100;-75
2023/11/12 02:08:30;;;;;;;4.05;2.25;;;;;;;6.77;54.19;93259.75;4965757;28;20062;-74
2023/11/12 02:10:56;;;;;;;5.05;2.83;;;;;;;6.58;54.79;93239.88;4962682;28;20035;-74
2023/11/12 02:13:22;;;;;;;2.92;2.60;;;;;;;6.70;54.55;93253.34;4951870;28;20046;-74
2023/11/12 02:15:47;;;;;;;3.60;3.30;;;;;;;6.78;54.53;93255.25;4964641;28;20030;-74
2023/11/12 02:18:13;;;;;;;5.30;3.25;;;;;;;6.84;54.50;93252.19;4966468;28;20031;-74
2023/11/12 02:20:46;;;;;;;4.57;2.70;;;;;;;6.76;54.75;93252.88;4982894;28;20046;-78
2023/11/12 02:23:12;;;;;;;5.32;3.13;;;;;;;6.83;55.18;93263.81;4965830;28;20031;-77
2023/11/12 02:25:38;;;;;;;6.15;4.28;;;;;;;6.70;54.72;93251.44;4966417;28;20129;-76
2023/11/12 02:28:03;;;;;;;17.23;3.80;;;;;;;6.74;54.25;93239.22;4966525;28;20030;-76
2023/11/12 02:30:29;;;;;;;3.58;2.97;;;;;;;6.68;55.17;93255.50;4966603;28;20047;-76
2023/11/12 02:32:54;;;;;;;6.35;2.90;;;;;;;6.81;54.90;93252.75;4966807;28;20732;-76
2023/11/12 02:35:19;;;;;;;6.30;2.53;;;;;;;6.72;54.92;93244.00;4965281;28;20187;-75
2023/11/12 02:37:45;;;;;;;2.45;2.25;;;;;;;6.60;54.68;93222.66;4972385;28;20038;-76
2023/11/12 02:40:12;;;;;;;3.85;3.15;;;;;;;6.93;54.61;93272.59;4966470;28;20393;-75
2023/11/12 02:42:37;;;;;;;3.78;2.97;;;;;;;6.95;54.08;93265.09;4966045;28;20189;-76
2023/11/12 02:45:06;;;;;;;3.83;2.67;;;;;;;6.74;55.04;93255.06;4964328;28;20520;-76
2023/11/12 02:47:32;;;;;;;2.78;1.70;;;;;;;6.73;54.74;93258.00;4968252;28;20050;-77
2023/11/12 02:50:16;;;;;;;6.43;2.80;;;;;;;6.91;54.55;93261.53;4964643;28;20030;-76
2023/11/12 02:52:41;;;;;;;5.00;2.10;;;;;;;6.93;54.51;93262.00;4964575;28;20134;-77
2023/11/12 02:55:07;;;;;;;5.90;2.70;;;;;;;6.83;54.53;93241.91;4964815;28;20482;-76
2023/11/12 02:57:32;;;;;;;4.28;2.10;;;;;;;7.03;54.11;93253.81;4966068;28;20117;-76
2023/11/12 02:59:58;;;;;;;6.60;2.03;;;;;;;6.91;54.23;93264.16;4965569;28;20069;-77
2023/11/12 03:02:23;;;;;;;4.05;2.15;;;;;;;6.91;54.23;93261.53;4962100;28;20042;-76
2023/11/12 03:04:50;;;;;;;3.45;2.15;;;;;;;6.76;54.23;93255.53;4964042;28;20571;-76
2023/11/12 03:07:18;;;;;;;2.95;1.95;;;;;;;6.91;54.41;93258.88;4964774;28;20748;-76
2023/11/12 03:09:44;;;;;;;4.13;1.73;;;;;;;6.83;54.34;93263.81;4965946;28;20044;-77
2023/11/12 03:12:10;;;;;;;5.45;2.05;;;;;;;6.86;54.24;93267.72;4954742;28;20417;-76
2023/11/12 03:14:36;;;;;;;6.55;2.47;;;;;;;6.86;54.20;93260.56;4953149;28;20296;-76
2023/11/12 03:17:01;;;;;;;5.57;1.98;;;;;;;6.64;54.27;93260.59;4961157;28;20058;-76
2023/11/12 03:19:28;;;;;;;2.35;1.70;;;;;;;6.72;54.47;93265.16;4959248;28;21070;-77
2023/11/12 03:21:55;;;;;;;3.30;1.70;;;;;;;6.53;54.10;93243.44;4961707;28;20042;-75
2023/11/12 03:24:24;;;;;;;4.28;1.40;;;;;;;6.79;54.14;93278.72;4955758;28;20050;-77
2023/11/12 03:26:50;;;;;;;3.22;1.88;;;;;;;6.83;53.97;93284.19;4956957;28;20035;-76
2023/11/12 03:29:17;;;;;;;4.07;1.70;;;;;;;6.72;54.18;93294.22;4950282;28;20527;-76
2023/11/12 03:31:44;;;;;;;5.22;1.52;;;;;;;6.66;54.15;93284.06;4956941;28;20046;-77
2023/11/12 03:34:10;;;;;;;2.95;1.80;;;;;;;6.63;54.10;93290.75;4960492;28;20101;-76
2023/11/12 03:36:35;;;;;;;3.83;1.50;;;;;;;6.54;54.02;93281.97;4960888;28;20022;-75
2023/11/12 03:39:01;;;;;;;3.00;1.50;;;;;;;6.74;53.91;93315.84;4960299;28;20077;-77
2023/11/12 03:41:26;;;;;;;6.82;1.50;;;;;;;6.59;54.38;93303.00;4955526;28;20089;-77
2023/11/12 03:43:51;;;;;;;3.50;1.60;;;;;;;6.59;54.38;93310.13;4974226;28;20031;-77
2023/11/12 03:46:17;;;;;;;3.35;1.50;;;;;;;6.66;54.35;93319.19;4961542;28;20097;-77
2023/11/12 03:48:42;;;;;;;2.67;1.70;;;;;;;6.59;54.27;93305.63;4955719;28;20029;-77
2023/11/12 03:51:08;;;;;;;3.45;1.40;;;;;;;6.74;53.81;93310.56;4959494;28;20042;-74
2023/11/12 03:53:33;;;;;;;2.97;1.50;;;;;;;6.56;54.17;93322.06;4955213;28;20050;-75
2023/11/12 03:55:59;;;;;;;2.47;1.42;;;;;;;6.47;54.19;93302.75;4959492;28;20041;-77
2023/11/12 03:58:24;;;;;;;2.53;1.63;;;;;;;6.36;54.83;93304.06;4955946;28;20097;-77
2023/11/12 04:00:50;;;;;;;1.27;1.10;;;;;;;6.45;54.21;93310.19;4960555;28;20842;-75
2023/11/12 04:03:17;;;;;;;1.60;1.40;;;;;;;6.53;53.88;93306.84;4964241;28;20035;-75
2023/11/12 04:05:42;;;;;;;1.70;1.30;;;;;;;6.51;54.08;93306.34;4962541;28;20122;-75
2023/11/12 04:08:08;;;;;;;1.98;1.40;;;;;;;6.56;53.59;93300.94;4965713;28;20047;-76
2023/11/12 04:10:33;;;;;;;22.05;1.83;;;;;;;6.68;53.17;93301.19;4964414;28;20063;-76
2023/11/12 04:12:59;;;;;;;1.95;1.13;;;;;;;6.52;53.60;93292.06;4967476;28;20521;-74
2023/11/12 04:15:25;;;;;;;1.60;1.10;;;;;;;6.49;53.83;93310.38;4963781;28;20190;-76
2023/11/12 04:17:50;;;;;;;3.20;1.48;;;;;;;6.66;53.68;93316.56;4966293;28;20030;-75
2023/11/12 04:20:15;;;;;;;2.03;1.20;;;;;;;6.67;53.35;93310.19;4964188;28;21255;-76
2023/11/12 04:22:41;;;;;;;2.38;1.02;;;;;;;6.54;53.55;93297.84;4964254;28;20035;-76
2023/11/12 04:25:07;;;;;;;2.08;1.15;;;;;;;6.62;53.59;93312.94;4967665;28;20058;-75
2023/11/12 04:27:32;;;;;;;2.40;1.00;;;;;;;6.23;53.30;93260.75;4965484;28;20039;-75
2023/11/12 04:29:58;;;;;;;1.63;1.25;;;;;;;6.51;53.47;93318.75;4963084;28;20037;-76
2023/11/12 04:32:23;;;;;;;1.20;1.10;;;;;;;6.39;53.68;93308.75;4964129;28;20086;-75
2023/11/12 04:34:49;;;;;;;1.10;1.00;;;;;;;6.60;53.38;93323.06;4968837;28;20034;-75
2023/11/12 04:37:14;;;;;;;5.28;2.22;;;;;;;6.54;53.15;93318.97;4963879;28;21000;-77
2023/11/12 04:39:40;;;;;;;1.20;1.00;;;;;;;5.97;54.72;93289.53;4967401;28;20638;-75
2023/11/12 04:42:06;;;;;;;1.42;1.00;;;;;;;6.13;53.80;93286.56;4964509;28;20047;-76
2023/11/12 04:44:32;;;;;;;1.80;1.25;;;;;;;5.93;55.56;93320.25;4965801;28;20525;-75
2023/11/12 04:46:57;;;;;;;3.53;1.30;;;;;;;6.08;55.15;93316.50;4964024;28;20042;-75
2023/11/12 04:49:24;;;;;;;1.30;1.20;;;;;;;5.81;55.09;93269.06;4965326;28;20062;-74
2023/11/12 04:51:50;;;;;;;1.27;1.05;;;;;;;6.21;55.08;93346.66;4963703;28;20322;-75
2023/11/12 04:54:15;;;;;;;2.80;1.30;;;;;;;6.26;55.43;93338.63;4965226;28;20510;-76
2023/11/12 04:56:45;;;;;;;1.65;1.50;;;;;;;6.17;55.10;93329.81;4965140;28;20047;-75
2023/11/12 04:59:11;;;;;;;1.20;1.10;;;;;;;6.18;55.52;93336.66;4969288;28;20057;-75
2023/11/12 05:01:36;;;;;;;1.70;1.30;;;;;;;6.01;55.70;93318.78;4968434;28;20497;-76
2023/11/12 05:04:02;;;;;;;3.78;1.60;;;;;;;6.15;56.02;93363.63;4967214;28;20295;-76
2023/11/12 05:06:29;;;;;;;2.85;1.60;;;;;;;6.37;55.66;93350.50;4968761;28;20125;-76
2023/11/12 05:08:55;;;;;;;1.73;1.60;;;;;;;6.19;56.36;93348.78;4966211;28;20054;-76
2023/11/12 05:11:20;;;;;;;2.78;1.48;;;;;;;6.03;56.45;93311.34;4967239;28;20406;-75
2023/11/12 05:13:46;;;;;;;3.13;1.48;;;;;;;6.26;55.99;93312.22;4965464;28;20038;-75
2023/11/12 05:16:11;;;;;;;2.22;1.35;;;;;;;6.32;56.29;93340.84;4966152;28;20026;-75
2023/11/12 05:18:36;;;;;;;1.95;1.40;;;;;;;6.40;55.94;93347.28;4969256;28;20030;-75
2023/11/12 05:21:04;;;;;;;1.50;1.40;;;;;;;6.47;55.77;93347.66;4965105;28;20482;-75
2023/11/12 05:23:32;;;;;;;2.30;1.42;;;;;;;6.41;56.00;93332.97;4966922;28;20273;-75
2023/11/12 05:25:59;;;;;;;1.65;1.27;;;;;;;6.24;56.20;93353.97;4964747;28;20034;-75
2023/11/12 05:28:26;;;;;;;3.58;2.40;;;;;;;6.38;55.99;93362.63;4967485;28;20077;-75
2023/11/12 05:30:52;;;;;;;2.20;1.73;;;;;;;6.47;55.78;93370.63;4969685;28;20019;-76
2023/11/12 05:33:18;;;;;;;4.03;1.95;;;;;;;6.42;55.23;93350.41;4969735;28;20062;-74
2023/11/12 05:35:44;;;;;;;3.63;3.30;;;;;;;6.40;55.52;93361.28;4966252;28;20038;-75
2023/11/12 05:38:09;;;;;;;1.85;1.52;;;;;;;6.40;55.73;93369.19;4967820;28;20563;-75
2023/11/12 05:40:35;;;;;;;3.20;2.00;;;;;;;6.18;55.89;93349.88;4967281;28;20042;-75
2023/11/12 05:43:00;;;;;;;3.03;2.33;;;;;;;6.37;55.78;93382.97;4966402;28;20033;-75
2023/11/12 05:45:26;;;;;;;2.33;2.03;;;;;;;6.24;56.04;93367.94;4967038;28;20057;-76
2023/11/12 05:47:51;;;;;;;3.25;1.63;;;;;;;6.42;55.59;93395.31;4965788;28;20037;-75
2023/11/12 05:50:17;;;;;;;3.40;2.50;;;;;;;6.38;55.66;93407.53;4967054;28;20500;-75
2023/11/12 05:52:43;;;;;;;3.30;2.25;;;;;;;6.19;56.24;93393.69;4965653;28;20108;-76
2023/11/12 05:55:09;;;;;;;3.60;2.20;;;;;;;6.40;55.55;93429.16;4974498;28;20026;-75
2023/11/12 05:57:35;;;;;;;3.05;2.45;;;;;;;6.27;56.01;93424.66;4966840;28;20267;-76
2023/11/12 06:00:00;;;;;;;5.10;2.30;;;;;;;6.21;56.59;93425.88;4968310;28;20042;-75
2023/11/12 06:02:26;;;;;;;2.78;2.45;;;;;;;6.23;56.31;93428.97;4961978;28;20564;-75
2023/11/12 06:04:51;;;;;;;2.63;2.10;;;;;;;6.25;56.44;93421.56;4968642;28;20038;-74
2023/11/12 06:07:16;;;;;;;2.58;1.90;;;;;;;6.31;56.71;93431.69;4965657;28;20422;-75
2023/11/12 06:09:44;;;;;;;5.93;1.88;;;;;;;6.31;56.51;93417.75;4965902;28;20022;-76
2023/11/12 06:12:09;;;;;;;3.50;1.65;;;;;;;6.48;56.81;93439.03;4963806;28;20046;-75
2023/11/12 06:14:36;;;;;;;3.90;1.83;;;;;;;6.63;56.66;93449.28;4965368;28;20445;-76
2023/11/12 06:17:04;;;;;;;3.17;1.67;;;;;;;6.35;57.50;93439.84;4966471;28;20363;-75
2023/11/12 06:19:30;;;;;;;3.30;2.15;;;;;;;6.54;57.28;93451.06;4965310;28;20039;-75
2023/11/12 06:21:57;;;;;;;2.70;1.90;;;;;;;6.60;57.38;93454.38;4964948;28;20136;-75
2023/11/12 06:24:22;;;;;;;6.85;2.38;;;;;;;6.58;57.31;93452.03;4965820;28;20058;-74
2023/11/12 06:26:47;;;;;;;4.72;2.35;;;;;;;6.72;56.85;93463.34;4963066;28;20055;-74
2023/11/12 06:29:13;;;;;;;12.07;7.45;;;;;;;6.82;56.48;93468.44;4946487;28;20039;-78
2023/11/12 06:31:39;;;;;;;8.70;6.70;;;;;;;7.12;56.44;93482.06;4950897;28;20169;-74
2023/11/12 06:34:04;;;;;;;5.25;4.03;;;;;;;7.13;56.33;93457.19;4963471;28;20065;-74
2023/11/12 06:36:30;;;;;;;3.08;2.65;;;;;;;7.27;56.45;93468.47;4959695;28;20603;-75
2023/11/12 06:38:55;;;;;;;3.92;3.08;;;;;;;7.41;55.93;93471.84;4956343;28;20116;-75
2023/11/12 06:41:21;;;;;;;5.78;3.47;;;;;;;7.36;55.67;93444.72;4954546;28;20109;-74
2023/11/12 06:43:46;;;;;;;12.45;3.42;;;;;;;7.60;55.65;93461.84;4957007;28;20046;-75
2023/11/12 06:46:12;;;;;;;3.58;2.63;;;;;;;7.34;56.04;93442.38;4955490;28;20053;-74
2023/11/12 06:48:37;;;;;;;5.80;2.85;;;;;;;7.50;56.59;93483.28;4957221;28;20084;-74
2023/11/12 06:51:03;;;;;;;4.93;3.00;;;;;;;7.24;55.75;93453.19;4953312;28;20065;-75
2023/11/12 06:53:28;;;;;;;6.28;3.53;;;;;;;7.65;54.93;93495.34;4957204;28;20098;-75
2023/11/12 06:55:54;;;;;;;14.27;8.18;;;;;;;7.73;55.79;93508.66;4969214;28;20042;-74
2023/11/12 06:58:20;;;;;;;10.82;8.57;;;;;;;7.78;56.09;93496.41;4960446;28;20053;-75
2023/11/12 07:00:45;;;;;;;7.63;5.90;;;;;;;7.76;55.68;93499.34;4956755;28;20097;-75
2023/11/12 07:03:11;;;;;;;10.40;6.03;;;;;;;7.63;56.41;93513.41;4957521;28;20077;-76
2023/11/12 07:05:37;;;;;;;9.00;5.63;;;;;;;7.62;56.42;93486.16;4955785;28;20049;-75
2023/11/12 07:08:04;;;;;;;9.73;6.28;;;;;;;7.86;56.61;93516.84;4957625;28;20393;-75
2023/11/12 07:10:30;;;;;;;10.75;5.55;;;;;;;7.73;56.20;93495.44;4956919;28;20066;-76
2023/11/12 07:12:57;;;;;;;6.28;3.15;;;;;;;7.74;55.51;93501.50;4955181;28;20479;-74
2023/11/12 07:15:22;;;;;;;4.63;2.60;;;;;;;7.82;53.87;93500.00;4957296;28;20057;-75
2023/11/12 07:17:49;;;;;;;4.60;2.35;;;;;;;7.71;54.00;93512.69;4954790;28;20359;-74
2023/11/12 07:20:15;;;;;;;2.50;1.63;;;;;;;7.87;53.17;93507.84;4953768;28;20156;-76
2023/11/12 07:22:44;;;;;;;4.40;2.50;;;;;;;8.04;53.20;93514.00;4954492;28;20536;-75
2023/11/12 07:25:10;;;;;;;9.00;3.90;;;;;;;8.02;53.36;93520.69;4958127;28;20043;-74
2023/11/12 07:27:36;;;;;;;6.20;4.07;;;;;;;7.81;54.25;93509.81;4954770;28;20023;-76
2023/11/12 07:30:02;;;;;;;9.02;5.85;;;;;;;7.71;55.38;93512.69;4958117;28;20647;-76
2023/11/12 07:32:28;;;;;;;8.82;5.43;;;;;;;7.89;55.89;93532.13;4954020;28;20039;-75
2023/11/12 07:34:54;;;;;;;7.68;5.30;;;;;;;7.95;56.79;93530.91;4970564;28;20066;-74
2023/11/12 07:37:20;;;;;;;11.25;6.93;;;;;;;8.04;56.29;93518.50;4955899;28;20497;-75
2023/11/12 07:39:45;;;;;;;10.60;5.60;;;;;;;8.13;56.06;93516.69;4962432;28;20544;-75
2023/11/12 07:42:10;;;;;;;5.30;3.47;;;;;;;8.02;54.10;93510.84;4956158;28;20580;-74
2023/11/12 07:44:36;;;;;;;6.57;2.58;;;;;;;8.38;53.66;93525.84;4953804;28;20046;-75
2023/11/12 07:47:04;;;;;;;6.82;3.38;;;;;;;8.30;53.09;93535.31;4957905;28;20071;-74
2023/11/12 07:49:30;;;;;;;6.07;3.58;;;;;;;8.18;53.33;93529.00;4954272;28;20058;-74
2023/11/12 07:51:55;;;;;;;4.32;2.60;;;;;;;8.15;52.89;93514.53;4955894;28;20508;-75
2023/11/12 07:54:20;;;;;;;3.55;1.83;;;;;;;7.76;53.25;93495.94;4954648;28;20254;-75
2023/11/12 07:56:46;;;;;;;4.85;2.10;;;;;;;7.82;54.96;93481.47;4956805;28;20049;-75
2023/11/12 07:59:12;;;;;;;2.83;1.48;;;;;;;8.04;55.43;93499.97;4955411;28;20077;-75
2023/11/12 08:01:38;;;;;;;10.02;1.50;;;;;;;8.03;55.03;93498.41;4956509;28;20039;-74
2023/11/12 08:04:04;;;;;;;7.38;1.60;;;;;;;7.86;56.18;93498.31;4956950;28;20335;-74
2023/11/12 08:06:30;;;;;;;4.13;1.83;;;;;;;7.79;55.39;93500.59;4959005;28;20039;-75
2023/11/12 08:08:55;;;;;;;8.18;3.97;;;;;;;7.43;57.24;93504.09;4954547;28;20050;-75
2023/11/12 08:11:20;;;;;;;4.43;2.40;;;;;;;7.47;57.44;93517.50;4969710;28;20034;-75
2023/11/12 08:13:46;;;;;;;5.95;2.20;;;;;;;7.61;56.68;93520.88;4955013;28;20066;-75
2023/11/12 08:16:12;;;;;;;4.25;2.75;;;;;;;7.57;55.28;93512.75;4955414;28;20022;-74
2023/11/12 08:18:39;;;;;;;4.30;2.83;;;;;;;7.76;55.84;93519.75;4954524;28;20030;-74
2023/11/12 08:21:05;;;;;;;3.67;2.25;;;;;;;7.94;56.03;93524.06;4953782;28;20053;-75
2023/11/12 08:23:31;;;;;;;4.05;1.92;;;;;;;7.96;55.09;93532.50;4958888;28;20065;-74
2023/11/12 08:25:57;;;;;;;4.55;2.72;;;;;;;7.91;53.73;93535.25;4948132;28;20121;-75
2023/11/12 08:28:24;;;;;;;3.85;2.38;;;;;;;7.50;55.89;93551.28;4939239;28;20030;-74
2023/11/12 08:30:50;;;;;;;3.83;2.13;;;;;;;7.75;54.93;93534.06;4956051;28;20033;-75
2023/11/12 08:33:15;;;;;;;6.10;2.35;;;;;;;7.91;52.79;93551.16;4955439;28;20342;-76
2023/11/12 08:35:42;;;;;;;4.18;1.75;;;;;;;7.89;52.80;93537.41;4957828;28;20097;-76
2023/11/12 08:38:07;;;;;;;3.30;1.88;;;;;;;7.92;53.34;93531.53;4957172;28;20038;-75
2023/11/12 08:40:33;;;;;;;4.43;2.22;;;;;;;7.93;53.02;93525.13;4960364;28;20031;-75
2023/11/12 08:42:59;;;;;;;5.53;2.90;;;;;;;8.21;52.08;93545.09;4961183;28;20124;-76
2023/11/12 08:45:24;;;;;;;8.45;5.40;;;;;;;8.39;52.19;93543.31;4956747;28;20038;-75
2023/11/12 08:47:50;;;;;;;4.60;3.25;;;;;;;8.39;52.39;93541.44;4959234;28;20054;-76
2023/11/12 08:50:15;;;;;;;6.80;3.80;;;;;;;8.35;52.15;93542.34;4956443;28;20242;-75
2023/11/12 08:52:41;;;;;;;7.47;4.20;;;;;;;8.34;53.29;93543.44;4949276;28;20031;-74
2023/11/12 08:55:07;;;;;;;13.05;5.50;;;;;;;8.50;52.67;93547.25;4959974;28;20030;-75
2023/11/12 08:57:34;;;;;;;9.52;4.35;;;;;;;8.54;53.35;93525.13;4953788;28;20149;-75
2023/11/12 08:59:59;;;;;;;7.30;4.32;;;;;;;8.76;52.94;93540.16;4958331;28;20042;-76
2023/11/12 09:02:27;;;;;;;6.50;4.13;;;;;;;8.87;52.15;93530.06;4962272;28;20035;-76
2023/11/12 09:04:53;;;;;;;14.27;6.65;;;;;;;8.95;51.35;93553.19;4964626;28;20073;-76
2023/11/12 09:07:18;;;;;;;12.23;5.18;;;;;;;8.99;51.98;93549.59;4964850;28;20030;-77
2023/11/12 09:09:44;;;;;;;5.28;2.83;;;;;;;8.95;51.94;93547.88;4959110;28;20018;-75
2023/11/12 09:12:09;;;;;;;8.13;2.65;;;;;;;8.85;51.45;93548.91;4959384;28;20030;-76
2023/11/12 09:14:35;;;;;;;5.28;2.72;;;;;;;8.98;51.97;93547.25;4958551;28;20039;-75
2023/11/12 09:17:01;;;;;;;3.80;2.35;;;;;;;9.16;51.53;93532.94;4959645;28;20123;-77
2023/11/12 09:19:26;;;;;;;3.72;2.15;;;;;;;8.60;51.45;93520.47;4959162;28;20049;-75
2023/11/12 09:21:53;;;;;;;7.25;2.42;;;;;;;8.59;52.00;93525.00;4958010;28;20015;-76
2023/11/12 09:24:18;;;;;;;2.45;1.73;;;;;;;8.33;52.13;93534.69;4951978;28;20520;-75
2023/11/12 09:26:45;;;;;;;3.92;2.00;;;;;;;8.41;52.04;93527.88;4950494;28;20099;-77
2023/11/12 09:29:11;;;;;;;3.85;1.88;;;;;;;8.73;51.34;93540.00;4959305;28;20062;-76
2023/11/12 09:31:37;;;;;;;9.25;2.47;;;;;;;8.76;51.13;93534.06;4962257;28;20062;-75
2023/11/12 09:34:02;;;;;;;3.63;2.05;;;;;;;8.79;51.08;93523.66;4960846;28;20037;-76
2023/11/12 09:36:28;;;;;;;5.47;2.20;;;;;;;8.97;50.73;93513.84;4953938;28;20058;-75
2023/11/12 09:38:54;;;;;;;6.32;2.05;;;;;;;8.89;50.27;93514.63;4939595;28;20126;-76
2023/11/12 09:41:22;;;;;;;3.90;1.73;;;;;;;9.02;50.31;93519.78;4948688;28;20149;-76
2023/11/12 09:43:50;;;;;;;5.72;2.15;;;;;;;9.08;49.97;93503.72;4972803;28;20030;-76
2023/11/12 09:46:19;;;;;;;4.82;2.85;;;;;;;9.17;49.94;93510.63;4958121;28;20263;-75
2023/11/12 09:48:45;;;;;;;4.53;2.13;;;;;;;9.27;49.67;93499.72;4959721;28;20238;-75
2023/11/12 09:51:13;;;;;;;5.95;2.08;;;;;;;9.18;49.75;93504.25;4959162;28;20069;-75
2023/11/12 09:53:41;;;;;;;7.95;2.33;;;;;;;8.89;49.97;93501.38;4958071;28;20141;-76
2023/11/12 09:56:10;;;;;;;5.47;2.88;;;;;;;9.07;51.07;93491.53;4960410;28;20034;-75
2023/11/12 09:58:37;;;;;;;9.02;4.63;;;;;;;9.21;50.87;93482.38;4955948;28;20254;-76
2023/11/12 10:01:04;;;;;;;10.98;4.40;;;;;;;9.28;49.64;93503.94;4960277;28;20832;-75
2023/11/12 10:03:30;;;;;;;6.90;4.13;;;;;;;9.28;50.25;93498.63;4957861;28;20083;-74
2023/11/12 10:05:56;;;;;;;6.05;3.88;;;;;;;9.29;50.96;93505.47;4956723;28;20046;-75
2023/11/12 10:08:22;;;;;;;7.35;4.63;;;;;;;9.08;51.68;93503.72;4960016;28;20754;-75
2023/11/12 10:10:48;;;;;;;8.68;4.82;;;;;;;9.13;51.82;93496.44;4958642;28;20035;-76
2023/11/12 10:13:13;;;;;;;13.70;5.63;;;;;;;9.31;51.71;93495.34;4959677;28;20033;-75
2023/11/12 10:15:39;;;;;;;13.75;7.05;;;;;;;9.30;51.37;93501.72;4956818;28;20400;-75
2023/11/12 10:18:06;;;;;;;10.48;5.53;;;;;;;9.24;50.62;93496.91;4958046;28;20061;-76
2023/11/12 10:20:37;;;;;;;12.98;6.47;;;;;;;9.34;50.83;93507.97;4958466;28;20042;-76
2023/11/12 10:23:03;;;;;;;12.15;5.00;;;;;;;9.43;51.10;93514.09;4958477;28;20099;-76
2023/11/12 10:25:52;;;;;;;8.48;4.43;;;;;;;9.67;50.35;93520.78;4961237;28;20421;-76
2023/11/12 10:28:18;;;;;;;8.57;4.32;;;;;;;9.65;50.40;93529.06;4960999;28;20053;-76
2023/11/12 10:30:46;;;;;;;8.90;5.25;;;;;;;9.86;49.77;93534.50;4962874;28;20529;-76
2023/11/12 10:33:16;;;;;;;7.78;5.65;;;;;;;9.73;50.46;93533.56;4961956;28;20074;-76
2023/11/12 10:35:42;;;;;;;12.15;6.78;;;;;;;9.33;51.58;93527.66;4958107;28;21194;-76
2023/11/12 10:38:08;;;;;;;21.15;11.43;;;;;;;9.48;52.42;93536.25;4959212;28;20030;-75
2023/11/12 10:40:34;;;;;;;21.83;12.23;;;;;;;9.76;52.50;93537.50;4956888;28;20384;-75
2023/11/12 10:43:07;;;;;;;20.27;13.45;;;;;;;9.41;53.69;93528.75;4960041;28;20067;-74
2023/11/12 10:45:35;;;;;;;18.80;12.68;;;;;;;9.34;53.37;93539.06;4959754;28;20907;-74
2023/11/12 10:48:04;;;;;;;16.10;10.43;;;;;;;8.92;53.12;93546.59;4966563;28;20053;-75
2023/11/12 10:50:30;;;;;;;10.95;7.43;;;;;;;8.42;53.46;93538.16;4964899;28;20043;-74
2023/11/12 10:52:56;;;;;;;7.80;4.00;;;;;;;7.97;52.67;93534.06;4968103;28;20501;-75
2023/11/12 10:55:25;;;;;;;9.43;4.28;;;;;;;8.55;52.44;93555.84;4957268;28;20022;-75
2023/11/12 10:57:51;;;;;;;8.45;5.93;;;;;;;8.57;52.90;93551.00;4969474;28;20049;-75
2023/11/12 11:00:19;;;;;;;9.85;7.35;;;;;;;8.28;53.94;93557.88;4970408;28;20039;-74
2023/11/12 11:02:47;;;;;;;13.10;7.35;;;;;;;8.27;53.98;93558.97;4968798;28;20038;-75
2023/11/12 11:05:13;;;;;;;9.82;6.22;;;;;;;8.11;54.12;93498.47;4970146;28;20065;-75
2023/11/12 11:07:39;;;;;;;12.48;8.38;;;;;;;8.80;54.07;93550.94;4967630;28;20061;-75
2023/11/12 11:10:06;;;;;;;12.13;8.30;;;;;;;9.01;53.46;93551.91;4964094;28;20026;-76
2023/11/12 11:12:33;;;;;;;17.25;9.68;;;;;;;9.05;54.19;93525.56;4955650;28;20074;-75
2023/11/12 11:15:36;;;;;;;11.80;7.50;;;;;;;9.10;53.47;93558.03;4967731;28;20038;-74
2023/11/12 11:18:04;;;;;;;13.20;8.50;;;;;;;9.17;52.48;93544.34;4967195;28;20022;-74
2023/11/12 11:21:17;;;;;;;14.18;9.10;;;;;;;9.28;52.47;93557.00;4966832;28;20596;-75
2023/11/12 11:23:53;;;;;;;11.65;9.00;;;;;;;9.11;52.62;93551.66;4971796;28;20053;-75
2023/11/12 11:26:41;;;;;;;17.70;11.15;;;;;;;9.24;53.64;93553.38;4965979;28;20065;-74
2023/11/12 11:29:10;;;;;;;16.40;10.80;;;;;;;9.29;54.09;93558.56;4982667;28;20100;-78
2023/11/12 11:31:38;;;;;;;16.38;10.88;;;;;;;9.46;53.78;93560.44;4968749;28;20038;-77
2023/11/12 11:34:06;;;;;;;25.83;11.20;;;;;;;9.47;52.67;93545.31;4960575;28;20029;-75
2023/11/12 11:36:31;;;;;;;15.65;11.55;;;;;;;9.62;53.53;93555.47;4958834;28;20046;-75